createdAt,value
2023-01-22T00:00:04.229Z,22.5
2023-01-22T00:05:10.215Z,22.5
2023-01-22T00:10:16.313Z,22.5
2023-01-22T00:15:22.414Z,22.5
2023-01-22T00:20:28.606Z,22.5
2023-01-22T00:25:34.614Z,23
2023-01-22T00:30:40.699Z,23
2023-01-22T00:35:46.794Z,22.5
2023-01-22T00:40:52.921Z,23
2023-01-22T00:45:58.023Z,23
2023-01-22T00:51:04.121Z,22.5
2023-01-22T00:56:10.253Z,23
2023-01-22T01:01:16.367Z,23
2023-01-22T01:06:22.454Z,23
2023-01-22T01:11:28.659Z,23
2023-01-22T01:16:34.658Z,23
2023-01-22T01:21:40.715Z,23
2023-01-22T01:26:46.808Z,23
2023-01-22T01:31:52.945Z,23
2023-01-22T01:36:59.038Z,23
2023-01-22T01:42:05.166Z,23.5
2023-01-22T01:47:11.217Z,23
2023-01-22T01:52:16.572Z,23.5
2023-01-22T01:57:22.474Z,23.5
2023-01-22T02:02:28.581Z,23.5
2023-01-22T02:07:34.638Z,23.5
2023-01-22T02:12:40.735Z,23.5
2023-01-22T02:17:45.859Z,23.5
2023-01-22T02:22:51.050Z,23.5
2023-01-22T02:27:56.187Z,23.5
2023-01-22T02:33:01.269Z,23.5
2023-01-22T02:38:07.303Z,23.5
2023-01-22T02:43:13.404Z,23.5
2023-01-22T02:48:19.521Z,23.5
2023-01-22T02:53:25.638Z,23.5
2023-01-22T02:58:31.731Z,23.5
2023-01-22T03:03:37.820Z,24
2023-01-22T03:08:43.911Z,23.5
2023-01-22T03:13:50.015Z,24
2023-01-22T03:18:56.115Z,24
2023-01-22T03:24:02.236Z,24
2023-01-22T03:29:08.311Z,24
2023-01-22T03:34:14.408Z,24
2023-01-22T03:39:19.535Z,24
2023-01-22T03:44:25.636Z,24
2023-01-22T03:49:31.775Z,24
2023-01-22T03:54:37.843Z,24
2023-01-22T03:59:43.919Z,24
2023-01-22T04:04:50.105Z,24
2023-01-22T04:09:56.133Z,24
2023-01-22T04:15:02.227Z,24
2023-01-22T04:20:08.406Z,24
2023-01-22T04:25:14.419Z,24
2023-01-22T04:30:20.523Z,24
2023-01-22T04:35:26.643Z,24
2023-01-22T04:40:32.799Z,24
2023-01-22T04:45:37.840Z,24
2023-01-22T04:50:44.012Z,24
2023-01-22T04:55:50.055Z,24
2023-01-22T05:00:56.429Z,24
2023-01-22T05:06:02.532Z,24
2023-01-22T05:11:08.376Z,24
2023-01-22T05:16:14.500Z,24
2023-01-22T05:21:20.559Z,24
2023-01-22T05:26:26.677Z,24
2023-01-22T05:31:32.744Z,24
2023-01-22T05:36:38.842Z,24
2023-01-22T05:41:43.967Z,24
2023-01-22T05:46:49.093Z,24
2023-01-22T05:51:54.200Z,24
2023-01-22T05:56:59.385Z,24.5
2023-01-22T06:02:05.421Z,24.5
2023-01-22T06:07:11.528Z,24.5
2023-01-22T06:12:17.624Z,24
2023-01-22T06:17:23.702Z,24.5
2023-01-22T06:22:29.926Z,24.5
2023-01-22T06:27:35.910Z,24.5
2023-01-22T06:32:42.010Z,24.5
2023-01-22T06:37:48.108Z,24.5
2023-01-22T06:42:54.205Z,24.5
2023-01-22T06:48:00.311Z,24.5
2023-01-22T06:53:06.421Z,24.5
2023-01-22T06:58:12.503Z,24.5
2023-01-22T07:03:17.648Z,24.5
2023-01-22T07:08:23.711Z,24.5
2023-01-22T07:13:29.849Z,24.5
2023-01-22T07:18:36.139Z,24.5
2023-01-22T07:23:42.620Z,24.5
2023-01-22T07:28:48.377Z,24.5
2023-01-22T07:33:54.192Z,24.5
2023-01-22T07:39:00.323Z,25
2023-01-22T07:44:06.412Z,25
2023-01-22T07:49:12.524Z,25
2023-01-22T07:54:18.647Z,25
2023-01-22T07:59:24.711Z,25
2023-01-22T08:04:30.825Z,25
2023-01-22T08:09:35.926Z,25
2023-01-22T08:14:42.029Z,25
2023-01-22T08:19:48.135Z,25
2023-01-22T08:24:54.222Z,25
2023-01-22T08:30:00.346Z,25
2023-01-22T08:35:06.432Z,25
2023-01-22T08:40:12.550Z,25.5
2023-01-22T08:45:18.611Z,25
2023-01-22T08:50:24.722Z,25
2023-01-22T08:55:30.816Z,25
2023-01-22T09:00:37.001Z,25.5
2023-01-22T09:05:43.010Z,25
2023-01-22T09:10:49.114Z,25
2023-01-22T09:15:54.239Z,25
2023-01-22T09:21:00.303Z,25
2023-01-22T09:26:06.424Z,25
2023-01-22T09:31:12.555Z,25
2023-01-22T09:36:18.612Z,25
2023-01-22T09:41:24.690Z,25
2023-01-22T09:46:30.784Z,25
2023-01-22T09:51:36.893Z,25
2023-01-22T09:56:43.006Z,25
2023-01-22T10:01:49.131Z,25
2023-01-22T10:06:55.165Z,25
2023-01-22T10:12:01.350Z,25
2023-01-22T10:17:07.377Z,25
2023-01-22T10:22:12.492Z,25
2023-01-22T10:27:18.595Z,25
2023-01-22T10:32:24.689Z,25
2023-01-22T10:37:30.761Z,25
2023-01-22T10:42:36.858Z,25
2023-01-22T10:47:42.965Z,25
2023-01-22T10:52:49.069Z,25
2023-01-22T10:57:55.161Z,25
2023-01-22T11:03:01.259Z,25
2023-01-22T11:08:07.351Z,25
2023-01-22T11:13:13.442Z,25
2023-01-22T11:18:19.548Z,25
2023-01-22T11:23:25.653Z,25
2023-01-22T11:28:30.863Z,25
2023-01-22T11:33:36.880Z,25
2023-01-22T11:38:42.971Z,25
2023-01-22T11:43:49.047Z,25
2023-01-22T11:48:55.147Z,25
2023-01-22T11:54:01.265Z,25
2023-01-22T11:59:07.350Z,25
2023-01-22T12:04:12.482Z,25
2023-01-22T12:09:18.561Z,25
2023-01-22T12:14:24.652Z,25
2023-01-22T12:19:30.847Z,25
2023-01-22T12:24:36.846Z,25
2023-01-22T12:29:42.959Z,25
2023-01-22T12:34:49.074Z,25
2023-01-22T12:39:55.162Z,25
2023-01-22T12:45:01.251Z,25
2023-01-22T12:50:07.349Z,25
2023-01-22T12:55:13.444Z,25
2023-01-22T13:00:19.542Z,25
2023-01-22T13:05:25.634Z,25
2023-01-22T13:10:30.891Z,25
2023-01-22T13:15:36.857Z,25
2023-01-22T13:20:42.956Z,25
2023-01-22T13:25:49.100Z,25
2023-01-22T13:30:55.203Z,25.5
2023-01-22T13:36:01.255Z,25
2023-01-22T13:41:07.341Z,25
2023-01-22T13:51:19.544Z,25
2023-01-22T13:56:25.614Z,25
2023-01-22T14:01:31.724Z,25
2023-01-22T14:06:37.823Z,25
2023-01-22T14:11:43.916Z,25
2023-01-22T14:16:49.028Z,25
2023-01-22T14:21:55.126Z,25
2023-01-22T14:27:01.216Z,25
2023-01-22T14:32:07.320Z,25
2023-01-22T14:37:13.409Z,26
2023-01-22T14:42:19.512Z,25
2023-01-22T14:47:25.616Z,25
2023-01-22T14:52:31.703Z,25.5
2023-01-22T14:57:37.812Z,25
2023-01-22T15:02:43.896Z,25
2023-01-22T15:07:50.000Z,25.5
2023-01-22T15:12:56.097Z,25
2023-01-22T15:18:02.197Z,25.5
2023-01-22T15:23:07.292Z,26
2023-01-22T15:28:13.464Z,25.5
2023-01-22T15:33:19.498Z,25.5
2023-01-22T15:38:25.598Z,25
2023-01-22T15:43:31.726Z,25
2023-01-22T15:48:37.792Z,25
2023-01-22T15:53:43.895Z,26
2023-01-22T15:58:49.977Z,25
2023-01-22T16:03:55.090Z,26
2023-01-22T16:09:00.213Z,25.5
2023-01-22T16:14:06.296Z,25
2023-01-22T16:19:12.404Z,26
2023-01-22T16:24:18.502Z,26
2023-01-22T16:29:24.597Z,26
2023-01-22T16:34:29.707Z,25
2023-01-22T16:39:34.829Z,26
2023-01-22T16:44:40.925Z,25
2023-01-22T16:49:47.023Z,26
2023-01-22T16:54:53.124Z,26
2023-01-22T16:59:59.298Z,25.5
2023-01-22T17:05:05.304Z,25
2023-01-22T17:10:11.404Z,25
2023-01-22T17:15:17.486Z,25
2023-01-22T17:20:23.590Z,25
2023-01-22T17:25:29.745Z,25
2023-01-22T17:30:35.938Z,25
2023-01-22T17:35:41.888Z,25
2023-01-22T17:40:48.171Z,25
2023-01-22T17:45:53.086Z,25
2023-01-22T17:50:59.191Z,25
2023-01-22T17:56:05.508Z,25
2023-01-22T18:01:11.380Z,25
2023-01-22T18:06:17.603Z,25
2023-01-22T18:11:23.616Z,25
2023-01-22T18:16:29.686Z,25
2023-01-22T18:21:34.872Z,25
2023-01-22T18:26:40.024Z,25
2023-01-22T18:31:46.088Z,25
2023-01-22T18:36:51.135Z,25
2023-01-22T18:41:56.286Z,25.5
2023-01-22T18:47:02.417Z,25
2023-01-22T18:52:08.485Z,25
2023-01-22T18:57:14.604Z,25
2023-01-22T19:02:20.656Z,25
2023-01-22T19:07:26.743Z,25.5
2023-01-22T19:12:32.839Z,25
2023-01-22T19:17:38.931Z,25
2023-01-22T19:22:45.044Z,25
2023-01-22T19:27:51.202Z,25
2023-01-22T19:32:57.229Z,25
2023-01-22T19:38:03.322Z,25
2023-01-22T19:43:09.424Z,25
2023-01-22T19:48:14.673Z,25
2023-01-22T19:53:20.636Z,26
2023-01-22T19:58:26.795Z,26
2023-01-22T20:03:32.832Z,25
2023-01-22T20:08:38.959Z,25
2023-01-22T20:13:45.099Z,25
2023-01-22T20:18:51.123Z,25
2023-01-22T20:23:57.278Z,25
2023-01-22T20:29:03.312Z,25
2023-01-22T20:34:09.444Z,25
2023-01-22T20:39:15.511Z,25.5
2023-01-22T20:44:21.745Z,25.5
2023-01-22T20:49:27.728Z,25
2023-01-22T20:54:32.902Z,25.5
2023-01-22T20:59:39.004Z,25
2023-01-22T21:04:45.018Z,25
2023-01-22T21:09:51.214Z,25
2023-01-22T21:14:57.249Z,25
2023-01-22T21:20:03.328Z,25
2023-01-22T21:25:09.400Z,25
2023-01-22T21:30:15.577Z,25
2023-01-22T21:35:21.605Z,25
2023-01-22T21:40:27.685Z,25
2023-01-22T21:45:33.799Z,25
2023-01-22T21:50:39.912Z,25
2023-01-22T21:55:45.984Z,25
2023-01-22T22:00:51.105Z,25
2023-01-22T22:05:57.194Z,25
2023-01-22T22:11:03.287Z,25
2023-01-22T22:16:09.389Z,25
2023-01-22T22:21:15.489Z,25
2023-01-22T22:26:21.588Z,25
2023-01-22T22:31:27.689Z,25
2023-01-22T22:36:33.816Z,25.5
2023-01-22T22:41:39.876Z,25
2023-01-22T22:46:45.997Z,25
2023-01-22T22:51:52.211Z,25
2023-01-22T22:56:58.235Z,25
2023-01-22T23:02:04.382Z,25
2023-01-22T23:12:15.506Z,25
2023-01-22T23:17:21.722Z,25
2023-01-22T23:22:27.661Z,25
2023-01-22T23:27:33.771Z,25.5
2023-01-22T23:32:39.911Z,25
2023-01-22T23:37:45.961Z,25
2023-01-22T23:42:52.093Z,25
2023-01-22T23:47:58.174Z,25
2023-01-22T23:53:04.310Z,26
2023-01-22T23:58:10.357Z,25
